Time;durP1;ratioP1;P1;durP2;ratioP2;P2;SDS_P1;SDS_P2;PMS_P1;PMS_P2;Temp;Humidity;BMP_temperature;BMP_pressure;BME280_temperature;BME280_humidity;BME280_pressure;Samples;Min_cycle;Max_cycle;Signal;HPM_P1;HPM_P2
2023/09/14 00:04:20;;;;;;;6.60;4.97;;;;;;;;;;2614564;54;20475;-77
2023/09/14 00:09:49;;;;;;;11.07;4.97;;;;;;;;;;2614689;54;20382;-76
2023/09/14 00:15:19;;;;;;;6.13;4.60;;;;;;;;;;2615457;54;20415;-81
2023/09/14 00:20:52;;;;;;;12.17;4.90;;;;;;;;;;2615407;39;20783;-84
2023/09/14 00:32:31;;;;;;;4.93;4.10;;;;;;;;;;2614523;54;20371;-84
2023/09/14 00:38:00;;;;;;;10.50;4.70;;;;;;;;;;2615853;54;20378;-83
2023/09/14 00:43:30;;;;;;;6.43;4.60;;;;;;;;;;2616185;54;20404;-81
2023/09/14 00:49:01;;;;;;;11.17;4.70;;;;;;;;;;2616061;54;20503;-81
2023/09/14 00:54:30;;;;;;;23.37;6.60;;;;;;;;;;2616701;39;20874;-82
2023/09/14 01:00:00;;;;;;;9.13;4.40;;;;;;;;;;2616060;39;20870;-80
2023/09/14 01:05:30;;;;;;;5.33;4.27;;;;;;;;;;2616120;54;20387;-82
2023/09/14 01:11:01;;;;;;;8.03;5.27;;;;;;;;;;2615231;54;20459;-81
2023/09/14 01:16:38;;;;;;;15.23;5.70;;;;;;;;;;2616374;54;20412;-80
2023/09/14 01:31:12;;;;;;;8.17;5.63;;;;;;;;;;2615642;54;20416;-76
2023/09/14 01:36:48;;;;;;;12.63;5.83;;;;;;;;;;2616354;39;20872;-76
2023/09/14 01:42:18;;;;;;;10.07;4.90;;;;;;;;;;2615422;54;20399;-76
2023/09/14 01:47:52;;;;;;;14.20;5.73;;;;;;;;;;2615982;39;20775;-75
2023/09/14 01:53:21;;;;;;;11.10;4.47;;;;;;;;;;2615542;54;21022;-76
2023/09/14 01:58:51;;;;;;;12.13;5.60;;;;;;;;;;2615687;54;20387;-77
2023/09/14 02:04:21;;;;;;;8.40;4.77;;;;;;;;;;2615380;39;20792;-75
2023/09/14 02:09:51;;;;;;;10.17;5.20;;;;;;;;;;2615878;54;20427;-75
2023/09/14 02:15:21;;;;;;;13.43;4.60;;;;;;;;;;2615459;54;20419;-76
2023/09/14 02:20:51;;;;;;;10.93;5.40;;;;;;;;;;2615500;39;20849;-75
2023/09/14 02:26:20;;;;;;;10.10;4.73;;;;;;;;;;2615805;54;20567;-76
2023/09/14 02:31:50;;;;;;;10.17;5.27;;;;;;;;;;2615119;54;20450;-75
2023/09/14 02:37:19;;;;;;;10.80;4.40;;;;;;;;;;2615996;54;20507;-79
2023/09/14 02:42:49;;;;;;;15.17;4.83;;;;;;;;;;2616549;54;20913;-80
2023/09/14 02:48:18;;;;;;;7.87;4.80;;;;;;;;;;2614644;54;20487;-80
2023/09/14 02:53:49;;;;;;;10.20;5.67;;;;;;;;;;2615584;39;20798;-80
2023/09/14 02:59:18;;;;;;;12.20;5.30;;;;;;;;;;2618656;54;20420;-82
2023/09/14 03:04:48;;;;;;;8.97;5.57;;;;;;;;;;2618075;54;20913;-80
2023/09/14 03:10:18;;;;;;;14.90;5.90;;;;;;;;;;2617913;54;20391;-80
2023/09/14 03:15:55;;;;;;;13.77;5.03;;;;;;;;;;2616025;54;20424;-81
2023/09/14 03:21:26;;;;;;;11.93;6.63;;;;;;;;;;2615784;54;20383;-79
2023/09/14 03:26:56;;;;;;;11.43;6.10;;;;;;;;;;2614991;54;20463;-81
2023/09/14 03:35:59;;;;;;;10.80;5.90;;;;;;;;;;2615000;54;20440;-80
2023/09/14 03:41:29;;;;;;;10.13;5.17;;;;;;;;;;2614950;54;20407;-80
2023/09/14 03:46:58;;;;;;;13.57;6.53;;;;;;;;;;2615657;54;20952;-80
2023/09/14 03:52:28;;;;;;;13.43;5.77;;;;;;;;;;2616344;54;20383;-79
2023/09/14 03:57:58;;;;;;;12.10;5.87;;;;;;;;;;2620321;54;20945;-77
2023/09/14 04:03:28;;;;;;;11.43;5.30;;;;;;;;;;2616005;54;20395;-82
2023/09/14 04:08:58;;;;;;;11.33;5.90;;;;;;;;;;2618056;39;20773;-83
2023/09/14 04:14:29;;;;;;;14.63;6.30;;;;;;;;;;2625139;54;20388;-79
2023/09/14 04:19:59;;;;;;;12.23;5.30;;;;;;;;;;2625249;54;20351;-80
2023/09/14 04:25:28;;;;;;;8.90;6.10;;;;;;;;;;2628227;54;20435;-77
2023/09/14 04:31:02;;;;;;;7.60;5.37;;;;;;;;;;2628146;54;20415;-79
2023/09/14 04:36:32;;;;;;;8.70;5.40;;;;;;;;;;2617538;54;20442;-80
2023/09/14 04:42:02;;;;;;;10.37;5.77;;;;;;;;;;2617283;54;20499;-81
2023/09/14 04:47:31;;;;;;;13.23;5.17;;;;;;;;;;2618389;54;20418;-80
2023/09/14 04:53:01;;;;;;;13.83;5.00;;;;;;;;;;2615613;54;20382;-79
2023/09/14 04:58:31;;;;;;;16.60;5.20;;;;;;;;;;2615614;54;20379;-77
2023/09/14 05:04:00;;;;;;;14.47;6.13;;;;;;;;;;2612483;54;20378;-77
2023/09/14 05:09:30;;;;;;;13.80;6.63;;;;;;;;;;2614493;54;20485;-76
2023/09/14 05:15:00;;;;;;;9.90;6.30;;;;;;;;;;2612819;54;20471;-73
2023/09/14 05:20:30;;;;;;;9.33;6.07;;;;;;;;;;2615309;54;20391;-73
2023/09/14 05:25:59;;;;;;;11.27;5.60;;;;;;;;;;2615485;54;20507;-73
2023/09/14 05:31:29;;;;;;;9.87;6.00;;;;;;;;;;2613837;46;20526;-73
2023/09/14 05:40:33;;;;;;;21.40;7.80;;;;;;;;;;2614560;54;20407;-73
2023/09/14 05:46:03;;;;;;;15.80;9.37;;;;;;;;;;2613721;54;20439;-74
2023/09/14 05:51:32;;;;;;;20.63;11.00;;;;;;;;;;2614957;54;20506;-73
2023/09/14 05:57:01;;;;;;;13.20;8.13;;;;;;;;;;2613407;54;20431;-73
2023/09/14 06:02:31;;;;;;;19.20;7.30;;;;;;;;;;2614415;54;20386;-73
2023/09/14 06:08:01;;;;;;;13.93;6.87;;;;;;;;;;2613155;54;20411;-76
2023/09/14 06:13:30;;;;;;;13.43;6.87;;;;;;;;;;2613940;54;20420;-75
2023/09/14 06:19:00;;;;;;;14.10;6.77;;;;;;;;;;2613430;39;20760;-76
2023/09/14 06:24:30;;;;;;;9.73;6.40;;;;;;;;;;2614639;39;20788;-72
2023/09/14 06:30:00;;;;;;;11.43;6.57;;;;;;;;;;2613511;54;20371;-73
2023/09/14 06:35:29;;;;;;;11.10;6.60;;;;;;;;;;2613589;39;20784;-76
2023/09/14 06:40:59;;;;;;;8.70;6.97;;;;;;;;;;2614311;54;20441;-73
2023/09/14 06:46:29;;;;;;;15.50;7.30;;;;;;;;;;2612808;54;20393;-73
2023/09/14 06:51:59;;;;;;;7.53;5.87;;;;;;;;;;2613029;54;20941;-72
2023/09/14 06:57:29;;;;;;;9.10;6.43;;;;;;;;;;2613471;54;20383;-72
2023/09/14 07:02:59;;;;;;;11.07;6.87;;;;;;;;;;2610343;54;20383;-75
2023/09/14 07:08:29;;;;;;;13.83;7.57;;;;;;;;;;2613947;54;20375;-73
2023/09/14 07:13:58;;;;;;;7.47;6.77;;;;;;;;;;2613974;39;20773;-73
2023/09/14 07:16:43;;;;;;;10.57;8.00;;;;;;;;;;2613689;54;20460;-72
2023/09/14 07:19:10;;;;;;;17.30;10.03;;;;;;;;;;2612928;54;20416;-74
2023/09/14 07:24:39;;;;;;;8.90;8.00;;;;;;;;;;2613989;54;20412;-73
2023/09/14 07:30:11;;;;;;;14.13;9.10;;;;;;;;;;2612548;54;21063;-73
2023/09/14 07:35:41;;;;;;;11.80;8.50;;;;;;;;;;2612994;54;20411;-77
2023/09/14 07:44:51;;;;;;;9.63;8.60;;;;;;;;;;2613673;54;20426;-72
2023/09/14 07:50:20;;;;;;;9.90;8.07;;;;;;;;;;2616541;54;20394;-73
2023/09/14 07:55:52;;;;;;;9.70;8.70;;;;;;;;;;2614232;54;20374;-72
2023/09/14 08:01:22;;;;;;;9.37;8.50;;;;;;;;;;2616093;54;20390;-77
2023/09/14 08:06:52;;;;;;;10.90;10.10;;;;;;;;;;2615370;54;20430;-72
2023/09/14 08:12:21;;;;;;;11.50;10.00;;;;;;;;;;2615799;54;20434;-73
2023/09/14 08:17:51;;;;;;;11.30;10.20;;;;;;;;;;2613907;54;20419;-74
2023/09/14 08:23:20;;;;;;;12.77;10.50;;;;;;;;;;2615738;54;20426;-74
2023/09/14 08:28:51;;;;;;;12.60;11.43;;;;;;;;;;2615354;54;20410;-74
2023/09/14 08:34:20;;;;;;;12.87;11.77;;;;;;;;;;2616108;39;20782;-73
2023/09/14 08:39:51;;;;;;;16.83;12.70;;;;;;;;;;2615335;54;20354;-74
2023/09/14 08:45:25;;;;;;;11.50;10.63;;;;;;;;;;2615988;54;20391;-74
2023/09/14 08:50:56;;;;;;;12.13;10.90;;;;;;;;;;2618872;39;20805;-73
2023/09/14 08:56:26;;;;;;;12.40;11.50;;;;;;;;;;2615481;54;20395;-74
2023/09/14 09:01:57;;;;;;;12.17;10.50;;;;;;;;;;2612128;54;20986;-75
2023/09/14 09:07:27;;;;;;;9.70;9.00;;;;;;;;;;2612465;54;20463;-72
2023/09/14 09:12:59;;;;;;;12.10;11.00;;;;;;;;;;2614090;54;20391;-73
2023/09/14 09:18:30;;;;;;;11.53;10.73;;;;;;;;;;2615881;54;20395;-78
2023/09/14 09:24:07;;;;;;;11.63;10.83;;;;;;;;;;2614917;54;20387;-73
2023/09/14 09:29:37;;;;;;;10.97;10.27;;;;;;;;;;2613816;54;20395;-73
2023/09/14 09:35:17;;;;;;;10.93;10.23;;;;;;;;;;2612574;54;20386;-74
2023/09/14 09:46:56;;;;;;;11.97;10.80;;;;;;;;;;2614411;54;20394;-80
2023/09/14 09:52:27;;;;;;;11.53;10.67;;;;;;;;;;2614119;39;20868;-78
2023/09/14 09:57:57;;;;;;;11.30;10.40;;;;;;;;;;2611198;54;20420;-78
2023/09/14 10:03:27;;;;;;;11.33;10.57;;;;;;;;;;2612516;54;20429;-78
2023/09/14 10:08:57;;;;;;;11.77;10.83;;;;;;;;;;2613112;54;20410;-79
2023/09/14 10:14:28;;;;;;;11.67;11.00;;;;;;;;;;2612168;54;20390;-77
2023/09/14 10:20:06;;;;;;;11.50;10.60;;;;;;;;;;2613431;54;20382;-79
2023/09/14 10:25:35;;;;;;;12.23;11.30;;;;;;;;;;2610965;54;20424;-81
2023/09/14 10:31:06;;;;;;;14.00;10.77;;;;;;;;;;2610691;54;20387;-79
2023/09/14 10:36:37;;;;;;;12.30;11.10;;;;;;;;;;2615074;54;20410;-79
2023/09/14 10:45:48;;;;;;;10.70;10.10;;;;;;;;;;2614763;54;20986;-76
2023/09/14 10:51:17;;;;;;;11.37;10.47;;;;;;;;;;2610344;54;20395;-73
2023/09/14 10:56:47;;;;;;;11.70;11.10;;;;;;;;;;2612624;54;20388;-74
2023/09/14 11:02:36;;;;;;;11.57;10.90;;;;;;;;;;2611854;54;20418;-74
2023/09/14 11:08:05;;;;;;;12.07;11.27;;;;;;;;;;2613459;54;23381;-73
2023/09/14 11:13:38;;;;;;;12.30;11.27;;;;;;;;;;2611027;54;20439;-74
2023/09/14 11:19:08;;;;;;;11.17;10.57;;;;;;;;;;2611337;54;20391;-74
2023/09/14 11:24:38;;;;;;;11.10;10.60;;;;;;;;;;2614699;54;20408;-73
2023/09/14 11:30:15;;;;;;;13.13;11.80;;;;;;;;;;2609793;54;20391;-72
2023/09/14 11:35:48;;;;;;;11.80;10.80;;;;;;;;;;2610500;54;20512;-73
2023/09/14 11:47:25;;;;;;;11.53;10.83;;;;;;;;;;2612869;54;20394;-76
2023/09/14 11:52:55;;;;;;;10.70;10.10;;;;;;;;;;2612478;54;20407;-73
2023/09/14 11:58:25;;;;;;;11.90;10.90;;;;;;;;;;2609972;54;20432;-73
2023/09/14 12:03:56;;;;;;;11.83;11.00;;;;;;;;;;2609636;54;20531;-76
2023/09/14 12:09:35;;;;;;;12.27;11.37;;;;;;;;;;2613426;54;20435;-78
2023/09/14 12:15:05;;;;;;;12.50;11.80;;;;;;;;;;2613571;54;20382;-76
2023/09/14 12:20:35;;;;;;;11.70;10.90;;;;;;;;;;2613704;54;20382;-73
2023/09/14 12:26:06;;;;;;;11.37;10.77;;;;;;;;;;2613196;54;20410;-74
2023/09/14 12:31:37;;;;;;;12.37;11.60;;;;;;;;;;2607854;54;20495;-76
2023/09/14 12:37:07;;;;;;;12.47;11.87;;;;;;;;;;2612019;54;20527;-73
2023/09/14 12:48:44;;;;;;;12.40;11.60;;;;;;;;;;2613058;54;20412;-74
2023/09/14 12:54:16;;;;;;;13.23;12.33;;;;;;;;;;2611553;54;20395;-77
2023/09/14 13:00:11;;;;;;;12.73;12.03;;;;;;;;;;2612867;54;20412;-74
2023/09/14 13:05:40;;;;;;;14.17;12.87;;;;;;;;;;2611320;54;20447;-75
2023/09/14 13:14:24;;;;;;;12.43;11.73;;;;;;;;;;2612613;54;20403;-80
2023/09/14 13:16:54;;;;;;;14.43;13.03;;;;;;;;;;2610434;54;20523;-79
2023/09/14 13:22:24;;;;;;;13.50;12.70;;;;;;;;;;2610364;54;20428;-78
2023/09/14 13:27:56;;;;;;;12.87;12.23;;;;;;;;;;2613687;39;20964;-75
2023/09/14 13:33:26;;;;;;;13.13;12.43;;;;;;;;;;2613697;54;20392;-77
2023/09/14 13:38:57;;;;;;;12.97;12.07;;;;;;;;;;2615157;54;20408;-77
2023/09/14 13:41:51;;;;;;;14.17;13.33;;;;;;;;;;2616084;54;20445;-79
2023/09/14 13:44:18;;;;;;;14.00;12.97;;;;;;;;;;2616107;31;21037;-80
2023/09/14 13:49:47;;;;;;;13.10;12.40;;;;;;;;;;2617231;39;21140;-81
2023/09/14 13:55:17;;;;;;;15.00;14.20;;;;;;;;;;2614769;54;20414;-80
2023/09/14 14:00:47;;;;;;;14.90;13.90;;;;;;;;;;2614724;54;20515;-79
2023/09/14 14:06:16;;;;;;;12.93;12.23;;;;;;;;;;2614249;54;20391;-81
2023/09/14 14:11:46;;;;;;;13.10;12.40;;;;;;;;;;2613130;54;20371;-80
2023/09/14 14:17:16;;;;;;;13.40;12.57;;;;;;;;;;2616230;39;20824;-80
2023/09/14 14:22:45;;;;;;;13.70;12.90;;;;;;;;;;2614952;54;20500;-82
2023/09/14 14:28:15;;;;;;;14.67;13.87;;;;;;;;;;2616490;54;20504;-79
2023/09/14 14:33:44;;;;;;;13.97;13.10;;;;;;;;;;2615545;54;20521;-80
2023/09/14 14:39:17;;;;;;;14.73;13.93;;;;;;;;;;2614868;54;20935;-81
2023/09/14 14:41:53;;;;;;;14.20;13.30;;;;;;;;;;2614170;47;20420;-80
2023/09/14 14:44:20;;;;;;;15.67;14.57;;;;;;;;;;2615312;39;20839;-81
2023/09/14 14:49:50;;;;;;;14.40;13.60;;;;;;;;;;2612630;54;20414;-81
2023/09/14 14:55:21;;;;;;;13.93;13.13;;;;;;;;;;2614858;39;20836;-78
2023/09/14 15:00:52;;;;;;;15.23;14.33;;;;;;;;;;2613127;54;20412;-77
2023/09/14 15:06:21;;;;;;;13.77;13.07;;;;;;;;;;2611810;46;20391;-80
2023/09/14 15:11:51;;;;;;;13.80;13.00;;;;;;;;;;2615805;54;20419;-80
2023/09/14 15:17:21;;;;;;;14.10;13.20;;;;;;;;;;2612125;54;21157;-81
2023/09/14 15:22:51;;;;;;;15.20;14.10;;;;;;;;;;2611374;54;20379;-80
2023/09/14 15:28:21;;;;;;;13.63;12.60;;;;;;;;;;2611781;54;20363;-77
2023/09/14 15:33:50;;;;;;;14.43;13.50;;;;;;;;;;2612657;54;21200;-78
2023/09/14 15:39:20;;;;;;;13.83;13.00;;;;;;;;;;2613788;54;20387;-78
2023/09/14 15:41:50;;;;;;;14.17;13.10;;;;;;;;;;2610537;47;20555;-80
2023/09/14 15:44:16;;;;;;;13.80;13.00;;;;;;;;;;2611848;47;20452;-80
2023/09/14 15:49:46;;;;;;;13.27;12.47;;;;;;;;;;2613724;54;20387;-79
2023/09/14 15:55:16;;;;;;;12.93;12.10;;;;;;;;;;2612898;54;20382;-80
2023/09/14 16:00:45;;;;;;;14.27;13.30;;;;;;;;;;2613568;54;20969;-78
2023/09/14 16:06:16;;;;;;;13.13;12.37;;;;;;;;;;2614216;54;20510;-80
2023/09/14 16:11:45;;;;;;;12.60;11.90;;;;;;;;;;2613760;54;20394;-79
2023/09/14 16:17:15;;;;;;;13.20;12.50;;;;;;;;;;2615473;54;20420;-80
2023/09/14 16:22:44;;;;;;;13.87;12.97;;;;;;;;;;2613722;46;20398;-81
2023/09/14 16:28:14;;;;;;;14.10;13.20;;;;;;;;;;2615965;54;20507;-80
2023/09/14 16:33:44;;;;;;;13.37;12.57;;;;;;;;;;2617022;54;20389;-81
2023/09/14 16:39:13;;;;;;;14.07;13.13;;;;;;;;;;2615397;54;20913;-75
2023/09/14 16:41:52;;;;;;;13.93;13.13;;;;;;;;;;2615059;54;20429;-73
2023/09/14 16:44:18;;;;;;;13.30;12.50;;;;;;;;;;2614761;39;20859;-75
2023/09/14 16:49:48;;;;;;;13.20;12.10;;;;;;;;;;2616137;54;20410;-75
2023/09/14 16:55:20;;;;;;;14.13;13.30;;;;;;;;;;2616718;31;20858;-74
2023/09/14 17:00:49;;;;;;;14.00;12.90;;;;;;;;;;2613493;54;20374;-73
2023/09/14 17:06:19;;;;;;;14.20;12.93;;;;;;;;;;2615072;54;20391;-73
2023/09/14 17:11:49;;;;;;;13.43;12.73;;;;;;;;;;2616477;54;20956;-73
2023/09/14 17:17:19;;;;;;;13.77;12.80;;;;;;;;;;2616058;46;20409;-76
2023/09/14 17:22:50;;;;;;;14.13;12.47;;;;;;;;;;2615608;54;20383;-77
2023/09/14 17:28:21;;;;;;;13.10;12.40;;;;;;;;;;2615614;54;21094;-74
2023/09/14 17:33:51;;;;;;;12.50;11.60;;;;;;;;;;2615325;54;20363;-75
2023/09/14 17:39:21;;;;;;;11.90;11.00;;;;;;;;;;2614267;46;20534;-74
2023/09/14 17:41:50;;;;;;;12.30;11.50;;;;;;;;;;2612691;54;20430;-74
2023/09/14 17:44:16;;;;;;;12.50;11.80;;;;;;;;;;2614131;54;20451;-75
2023/09/14 17:49:45;;;;;;;13.37;12.07;;;;;;;;;;2614736;39;20973;-78
2023/09/14 17:55:15;;;;;;;13.07;12.27;;;;;;;;;;2614840;39;20879;-81
2023/09/14 18:00:46;;;;;;;12.40;11.60;;;;;;;;;;2614399;54;20387;-83
2023/09/14 18:06:17;;;;;;;12.37;11.47;;;;;;;;;;2617094;54;20410;-82
2023/09/14 18:11:47;;;;;;;12.90;11.90;;;;;;;;;;2617836;39;20762;-85
2023/09/14 18:17:17;;;;;;;12.20;11.23;;;;;;;;;;2616040;54;20379;-83
2023/09/14 18:22:48;;;;;;;11.20;10.40;;;;;;;;;;2617029;54;20386;-84
2023/09/14 18:28:18;;;;;;;11.07;10.17;;;;;;;;;;2617916;54;20444;-85
2023/09/14 18:33:47;;;;;;;10.50;9.60;;;;;;;;;;2617556;54;20463;-85
2023/09/14 18:39:17;;;;;;;10.83;9.73;;;;;;;;;;2615696;54;20394;-85
2023/09/14 18:41:53;;;;;;;12.70;10.23;;;;;;;;;;2615216;54;20427;-84
2023/09/14 18:44:20;;;;;;;11.73;10.57;;;;;;;;;;2616052;54;20515;-85
2023/09/14 18:49:49;;;;;;;11.83;10.63;;;;;;;;;;2614748;54;20375;-86
2023/09/14 18:55:22;;;;;;;15.40;10.43;;;;;;;;;;2616860;54;20395;-85
2023/09/14 19:00:52;;;;;;;10.43;9.40;;;;;;;;;;2615882;39;20854;-76
2023/09/14 19:06:22;;;;;;;9.40;8.70;;;;;;;;;;2615899;54;20416;-77
2023/09/14 19:11:51;;;;;;;10.47;9.37;;;;;;;;;;2616311;31;20864;-77
2023/09/14 19:14:36;;;;;;;10.80;9.67;;;;;;;;;;2615128;54;20406;-77
2023/09/14 19:17:03;;;;;;;10.37;9.20;;;;;;;;;;2614727;54;20425;-78
2023/09/14 19:22:33;;;;;;;10.20;9.40;;;;;;;;;;2615637;54;20387;-78
2023/09/14 19:28:02;;;;;;;10.63;9.83;;;;;;;;;;2615525;54;20418;-76
2023/09/14 19:33:32;;;;;;;10.00;9.00;;;;;;;;;;2613533;54;20460;-78
2023/09/14 19:39:01;;;;;;;12.83;11.40;;;;;;;;;;2615857;39;20777;-76
2023/09/14 19:41:52;;;;;;;11.50;10.40;;;;;;;;;;2613646;54;20447;-81
2023/09/14 19:44:18;;;;;;;10.90;9.80;;;;;;;;;;2610395;54;20416;-78
2023/09/14 19:49:48;;;;;;;10.93;9.80;;;;;;;;;;2615148;54;20418;-77
2023/09/14 19:55:18;;;;;;;14.83;10.20;;;;;;;;;;2615594;54;20479;-78
2023/09/14 20:00:48;;;;;;;14.70;9.20;;;;;;;;;;2613876;54;20399;-77
2023/09/14 20:06:19;;;;;;;9.50;8.60;;;;;;;;;;2613797;39;20774;-77
2023/09/14 20:11:48;;;;;;;12.53;9.50;;;;;;;;;;2615844;54;20366;-82
2023/09/14 20:17:18;;;;;;;13.93;9.73;;;;;;;;;;2614494;54;20453;-81
2023/09/14 20:22:48;;;;;;;10.27;9.00;;;;;;;;;;2615623;54;20415;-84
2023/09/14 20:28:22;;;;;;;9.93;9.23;;;;;;;;;;2616235;54;20402;-83
2023/09/14 20:33:51;;;;;;;13.53;8.60;;;;;;;;;;2616350;54;20383;-83
2023/09/14 20:39:23;;;;;;;11.03;9.83;;;;;;;;;;2612765;54;20423;-81
2023/09/14 20:41:50;;;;;;;17.03;9.73;;;;;;;;;;2614438;47;20422;-81
2023/09/14 20:44:16;;;;;;;9.60;8.93;;;;;;;;;;2613697;47;20419;-81
2023/09/14 20:49:48;;;;;;;17.67;8.60;;;;;;;;;;2612243;54;20953;-83
2023/09/14 20:55:24;;;;;;;10.73;9.67;;;;;;;;;;2611026;39;20797;-82
2023/09/14 20:58:09;;;;;;;9.27;8.47;;;;;;;;;;2613546;54;20870;-81
2023/09/14 21:00:35;;;;;;;9.77;8.87;;;;;;;;;;2612677;54;20427;-81
2023/09/14 21:06:04;;;;;;;14.87;9.70;;;;;;;;;;2613308;54;21089;-84
2023/09/14 21:11:37;;;;;;;8.87;7.90;;;;;;;;;;2616453;54;20425;-83
2023/09/14 21:17:07;;;;;;;9.97;8.97;;;;;;;;;;2613265;39;21024;-82
2023/09/14 21:22:36;;;;;;;11.03;9.27;;;;;;;;;;2613530;39;20734;-82
2023/09/14 21:28:06;;;;;;;17.20;9.87;;;;;;;;;;2613697;54;20431;-83
2023/09/14 21:33:36;;;;;;;9.33;8.23;;;;;;;;;;2612713;54;20397;-84
2023/09/14 21:39:06;;;;;;;11.60;10.40;;;;;;;;;;2612884;54;20492;-81
2023/09/14 21:41:52;;;;;;;9.70;8.70;;;;;;;;;;2612077;47;20997;-82
2023/09/14 21:44:19;;;;;;;12.03;8.73;;;;;;;;;;2612530;54;20395;-81
2023/09/14 21:49:50;;;;;;;12.07;9.50;;;;;;;;;;2612381;54;20978;-83
2023/09/14 21:55:20;;;;;;;9.83;8.77;;;;;;;;;;2613000;54;20448;-82
2023/09/14 22:00:50;;;;;;;9.20;8.10;;;;;;;;;;2615620;54;20395;-82
2023/09/14 22:06:20;;;;;;;9.03;8.23;;;;;;;;;;2612382;54;20499;-82
2023/09/14 22:11:49;;;;;;;9.90;9.00;;;;;;;;;;2613278;39;20757;-83
2023/09/14 22:17:19;;;;;;;9.00;8.10;;;;;;;;;;2613756;54;20394;-83
2023/09/14 22:22:50;;;;;;;9.17;8.27;;;;;;;;;;2614038;54;20411;-83
2023/09/14 22:28:19;;;;;;;12.13;8.67;;;;;;;;;;2613136;54;20383;-82
2023/09/14 22:33:50;;;;;;;11.20;9.13;;;;;;;;;;2614432;54;20367;-76
2023/09/14 22:39:22;;;;;;;14.70;8.30;;;;;;;;;;2614280;39;20779;-76
2023/09/14 22:41:50;;;;;;;9.83;6.90;;;;;;;;;;2612218;54;20411;-76
2023/09/14 22:44:16;;;;;;;9.20;8.40;;;;;;;;;;2612677;54;20427;-77
2023/09/14 22:49:46;;;;;;;8.67;7.10;;;;;;;;;;2613406;54;21395;-75
2023/09/14 22:55:15;;;;;;;11.07;8.20;;;;;;;;;;2612850;39;20739;-76
2023/09/14 23:00:46;;;;;;;11.60;7.97;;;;;;;;;;2612816;54;20390;-76
2023/09/14 23:06:17;;;;;;;10.43;8.13;;;;;;;;;;2614054;54;20365;-76
2023/09/14 23:11:47;;;;;;;9.23;8.20;;;;;;;;;;2613438;54;20414;-78
2023/09/14 23:17:17;;;;;;;15.50;8.30;;;;;;;;;;2613972;39;20865;-75
2023/09/14 23:22:46;;;;;;;10.37;8.37;;;;;;;;;;2612753;54;20387;-76
2023/09/14 23:28:16;;;;;;;13.40;8.63;;;;;;;;;;2612503;54;20427;-78
2023/09/14 23:33:46;;;;;;;9.90;8.23;;;;;;;;;;2616056;54;20495;-76
2023/09/14 23:39:19;;;;;;;8.20;7.40;;;;;;;;;;2613208;54;22135;-82
2023/09/14 23:41:53;;;;;;;10.03;9.03;;;;;;;;;;2612866;54;20434;-85
2023/09/14 23:44:19;;;;;;;8.50;7.63;;;;;;;;;;2614132;54;20415;-80
2023/09/14 23:49:49;;;;;;;9.83;8.23;;;;;;;;;;2614790;54;20346;-84
2023/09/14 23:55:19;;;;;;;11.80;8.60;;;;;;;;;;2614784;54;20350;-83
